Airport Name : Akureyri

Other Name : Akureyri

ICAO : BIAR

IATA : AEY

FAA :

Latitude : 65.659994

Longitude : -18.072703

Country : Iceland

Local Date and Time : 28 Oct 2020 20:40

 

TAF (Terminal Aerodrome Forecast)

TAF BIAR 281935Z 2821/2921 05010KT 9999 -RA SCT023 BKN030 TX05/2913Z TN01/2901Z TEMPO 2821/2901 08015G25KT BECMG 2917/2919 15010KT

 

METAR (METeorological Aerodrome Report)

BIAR 282000Z 08020G34KT 9999 SCT025 05/00 Q0992

BIAR 281900Z 08016G26KT 050V110 9999 SCT023 05/00 Q0992

BIAR 281800Z 08017G28KT 9999 SCT023 05/01 Q0992

BIAR 281700Z 07032G42KT 9999 -RA BKN027 05/01 Q0992

To Charter a Jet Click here.